createdAt,value
2019-02-27T00:00:09.186Z,0.60
2019-02-27T00:01:07.281Z,0.60
2019-02-27T00:02:06.955Z,0.60
2019-02-27T00:03:07.277Z,0.50
2019-02-27T00:04:06.922Z,0.40
2019-02-27T00:05:08.422Z,0.50
2019-02-27T00:06:06.905Z,0.60
2019-02-27T00:07:07.277Z,0.50
2019-02-27T00:08:07.285Z,0.60
2019-02-27T00:09:06.875Z,0.40
2019-02-27T00:10:07.275Z,0.50
2019-02-27T00:11:06.858Z,0.50
2019-02-27T00:12:06.828Z,0.70
2019-02-27T00:13:06.822Z,0.70
2019-02-27T00:14:07.275Z,0.50
2019-02-27T00:15:06.800Z,0.40
2019-02-27T00:16:10.879Z,0.40
2019-02-27T00:17:08.264Z,0.60
2019-02-27T00:18:07.340Z,0.50
2019-02-27T00:19:06.792Z,0.40
2019-02-27T00:20:06.772Z,0.60
2019-02-27T00:21:10.238Z,0.50
2019-02-27T00:22:06.718Z,0.40
2019-02-27T00:23:06.787Z,0.40
2019-02-27T00:24:06.702Z,0.50
2019-02-27T00:25:06.694Z,0.70
2019-02-27T00:26:08.817Z,0.80
2019-02-27T00:27:06.685Z,0.40
2019-02-27T00:28:06.671Z,0.50
2019-02-27T00:29:06.651Z,0.50
2019-02-27T00:30:06.667Z,0.50
2019-02-27T00:31:11.171Z,0.50
2019-02-27T00:32:07.620Z,0.60
2019-02-27T00:33:06.614Z,0.60
2019-02-27T00:34:06.598Z,0.40
2019-02-27T00:35:07.428Z,0.50
2019-02-27T00:36:06.773Z,0.50
2019-02-27T00:37:06.573Z,0.50
2019-02-27T00:38:06.542Z,0.40
2019-02-27T00:39:06.545Z,0.40
2019-02-27T00:40:06.523Z,0.60
2019-02-27T00:41:06.517Z,0.80
2019-02-27T00:42:06.505Z,0.40
2019-02-27T00:43:06.782Z,0.50
2019-02-27T00:44:06.479Z,0.50
2019-02-27T00:45:07.161Z,0.50
2019-02-27T00:46:06.470Z,0.50
2019-02-27T00:47:06.445Z,0.50
2019-02-27T00:48:06.433Z,0.50
2019-02-27T00:49:06.439Z,0.50
2019-02-27T00:50:06.805Z,0.50
2019-02-27T00:51:06.430Z,0.60
2019-02-27T00:52:06.419Z,0.50
2019-02-27T00:53:06.782Z,0.50
2019-02-27T00:54:06.382Z,0.40
2019-02-27T00:55:06.364Z,0.50
2019-02-27T00:56:06.344Z,0.50
2019-02-27T00:57:06.363Z,0.50
2019-02-27T00:58:06.337Z,0.50
2019-02-27T00:59:06.312Z,0.40
2019-02-27T01:00:07.199Z,0.40
2019-02-27T01:01:06.299Z,0.50
2019-02-27T01:02:06.286Z,0.40
2019-02-27T01:03:06.293Z,0.40
2019-02-27T01:04:06.284Z,0.50
2019-02-27T01:05:09.126Z,0.60
2019-02-27T01:06:06.245Z,0.60
2019-02-27T01:07:06.240Z,0.40
2019-02-27T01:08:06.226Z,0.50
2019-02-27T01:09:06.422Z,0.60
2019-02-27T01:10:06.197Z,0.60
2019-02-27T01:11:06.199Z,0.50
2019-02-27T01:12:06.191Z,0.70
2019-02-27T01:13:06.169Z,0.50
2019-02-27T01:14:06.278Z,0.50
2019-02-27T01:15:07.917Z,0.60
2019-02-27T01:16:06.124Z,0.40
2019-02-27T01:17:06.121Z,0.50
2019-02-27T01:18:06.102Z,0.50
2019-02-27T01:19:06.111Z,0.50
2019-02-27T01:20:06.098Z,0.50
2019-02-27T01:21:06.087Z,0.50
2019-02-27T01:22:06.082Z,0.40
2019-02-27T01:23:06.045Z,0.50
2019-02-27T01:24:06.034Z,0.50
2019-02-27T01:25:06.024Z,0.40
2019-02-27T01:26:06.020Z,0.40
2019-02-27T01:27:06.035Z,0.50
2019-02-27T01:28:05.993Z,0.40
2019-02-27T01:29:05.981Z,0.50
2019-02-27T01:30:05.971Z,0.40
2019-02-27T01:31:05.955Z,0.40
2019-02-27T01:32:05.968Z,0.50
2019-02-27T01:33:05.933Z,0.50
2019-02-27T01:34:05.923Z,0.50
2019-02-27T01:35:05.914Z,0.40
2019-02-27T01:36:06.290Z,0.40
2019-02-27T01:37:05.909Z,0.40
2019-02-27T01:38:05.960Z,0.60
2019-02-27T01:39:05.867Z,0.40
2019-02-27T01:40:05.861Z,0.50
2019-02-27T01:41:06.287Z,0.50
2019-02-27T01:42:05.838Z,0.60
2019-02-27T01:43:06.487Z,0.40
2019-02-27T01:44:05.812Z,0.50
2019-02-27T01:45:06.299Z,0.40
2019-02-27T01:46:05.795Z,0.50
2019-02-27T01:47:05.779Z,0.50
2019-02-27T01:48:08.908Z,0.40
2019-02-27T01:49:05.781Z,0.40
2019-02-27T01:50:05.759Z,0.40
2019-02-27T01:51:05.760Z,0.30
2019-02-27T01:52:05.724Z,0.50
2019-02-27T01:53:07.370Z,0.50
2019-02-27T01:54:05.709Z,0.40
2019-02-27T01:55:05.692Z,0.40
2019-02-27T01:56:05.690Z,0.50
2019-02-27T01:57:05.684Z,0.60
2019-02-27T01:58:09.158Z,0.40
2019-02-27T01:59:05.649Z,0.50
2019-02-27T02:00:06.332Z,0.50
2019-02-27T02:01:05.647Z,0.50
2019-02-27T02:02:05.803Z,0.50
2019-02-27T02:03:05.604Z,0.50
2019-02-27T02:04:05.591Z,0.50
2019-02-27T02:05:05.585Z,0.50
2019-02-27T02:06:05.592Z,0.50
2019-02-27T02:07:06.646Z,0.40
2019-02-27T02:08:05.554Z,0.50
2019-02-27T02:09:05.534Z,0.40
2019-02-27T02:10:05.543Z,0.50
2019-02-27T02:11:05.516Z,0.60
2019-02-27T02:12:07.821Z,0.40
2019-02-27T02:13:05.811Z,0.40
2019-02-27T02:14:05.496Z,0.60
2019-02-27T02:15:05.482Z,0.40
2019-02-27T02:16:05.797Z,0.50
2019-02-27T02:17:07.459Z,0.50
2019-02-27T02:18:05.479Z,0.40
2019-02-27T02:19:05.806Z,0.60
2019-02-27T02:20:05.435Z,0.40
2019-02-27T02:21:05.409Z,0.50
2019-02-27T02:22:06.121Z,0.40
2019-02-27T02:23:05.382Z,0.50
2019-02-27T02:24:05.383Z,0.40
2019-02-27T02:25:05.787Z,0.40
2019-02-27T02:26:05.349Z,0.50
2019-02-27T02:27:07.994Z,0.40
2019-02-27T02:28:05.335Z,0.60
2019-02-27T02:29:05.314Z,0.50
2019-02-27T02:30:05.316Z,0.40
2019-02-27T02:31:06.504Z,0.60
2019-02-27T02:32:05.310Z,0.40
2019-02-27T02:33:05.295Z,0.50
2019-02-27T02:34:06.239Z,0.40
2019-02-27T02:35:05.249Z,0.30
2019-02-27T02:36:05.249Z,0.40
2019-02-27T02:37:05.231Z,0.50
2019-02-27T02:38:08.823Z,0.40
2019-02-27T02:39:06.219Z,0.40
2019-02-27T02:40:05.212Z,0.50
2019-02-27T02:41:07.998Z,0.40
2019-02-27T02:42:05.185Z,0.30
2019-02-27T02:43:05.305Z,0.30
2019-02-27T02:44:05.157Z,0.40
2019-02-27T02:45:05.153Z,0.40
2019-02-27T02:46:08.770Z,0.50
2019-02-27T02:47:05.117Z,0.30
2019-02-27T02:48:05.314Z,0.40
2019-02-27T02:49:08.023Z,0.30
2019-02-27T02:50:05.304Z,0.50
2019-02-27T02:51:05.094Z,0.60
2019-02-27T02:52:05.950Z,0.40
2019-02-27T02:53:05.060Z,0.30
2019-02-27T02:54:05.052Z,0.50
2019-02-27T02:55:05.312Z,0.50
2019-02-27T02:56:05.033Z,0.30
2019-02-27T02:57:05.174Z,0.40
2019-02-27T02:58:07.822Z,0.50
2019-02-27T02:59:06.295Z,0.40
2019-02-27T03:00:04.978Z,0.40
2019-02-27T03:01:05.299Z,0.30
2019-02-27T03:02:04.954Z,0.40
2019-02-27T03:03:04.954Z,0.50
2019-02-27T03:04:04.939Z,0.40
2019-02-27T03:05:05.332Z,0.40
2019-02-27T03:06:04.905Z,0.50
2019-02-27T03:07:07.224Z,0.30
2019-02-27T03:08:05.888Z,0.50
2019-02-27T03:09:04.879Z,0.40
2019-02-27T03:10:07.572Z,0.30
2019-02-27T03:11:05.317Z,0.40
2019-02-27T03:12:04.845Z,0.40
2019-02-27T03:13:07.134Z,0.40
2019-02-27T03:14:04.824Z,0.30
2019-02-27T03:15:04.809Z,0.50
2019-02-27T03:16:05.916Z,0.50
2019-02-27T03:17:04.802Z,0.70
2019-02-27T03:18:04.836Z,0.60
2019-02-27T03:19:06.384Z,0.40
2019-02-27T03:20:04.762Z,0.40
2019-02-27T03:21:04.745Z,0.40
2019-02-27T03:22:04.822Z,0.50
2019-02-27T03:23:04.795Z,0.50
2019-02-27T03:24:04.800Z,0.40
2019-02-27T03:25:05.520Z,0.50
2019-02-27T03:26:04.691Z,0.40
2019-02-27T03:27:04.681Z,0.50
2019-02-27T03:28:05.752Z,0.40
2019-02-27T03:29:04.664Z,0.50
2019-02-27T03:30:04.819Z,0.50
2019-02-27T03:31:04.639Z,0.40
2019-02-27T03:32:04.807Z,0.30
2019-02-27T03:33:04.622Z,0.60
2019-02-27T03:34:07.820Z,0.50
2019-02-27T03:35:04.598Z,0.40
2019-02-27T03:36:04.592Z,0.40
2019-02-27T03:37:04.796Z,0.40
2019-02-27T03:38:04.810Z,0.50
2019-02-27T03:39:04.548Z,0.40
2019-02-27T03:40:10.905Z,0.30
2019-02-27T03:41:05.521Z,0.40
2019-02-27T03:42:04.518Z,0.40
2019-02-27T03:43:10.067Z,0.30
2019-02-27T03:44:05.503Z,0.30
2019-02-27T03:45:04.822Z,0.30
2019-02-27T03:46:06.230Z,0.40
2019-02-27T03:47:04.464Z,0.30
2019-02-27T03:48:04.464Z,0.50
2019-02-27T03:49:04.681Z,0.20
2019-02-27T03:50:04.827Z,0.40
2019-02-27T03:51:04.420Z,0.40
2019-02-27T03:52:04.403Z,0.40
2019-02-27T03:53:04.395Z,0.40
2019-02-27T03:54:04.389Z,0.40
2019-02-27T03:55:04.843Z,0.40
2019-02-27T03:56:08.769Z,0.50
2019-02-27T03:57:04.354Z,0.30
2019-02-27T03:58:04.342Z,0.50
2019-02-27T03:59:06.109Z,0.40
2019-02-27T04:00:04.341Z,0.40
2019-02-27T04:01:04.330Z,0.40
2019-02-27T04:02:06.137Z,0.30
2019-02-27T04:03:04.284Z,0.40
2019-02-27T04:04:04.268Z,0.40
2019-02-27T04:05:07.092Z,0.30
2019-02-27T04:06:04.410Z,0.40
2019-02-27T04:07:04.243Z,0.30
2019-02-27T04:08:08.649Z,0.30
2019-02-27T04:09:04.216Z,0.40
2019-02-27T04:10:04.202Z,0.40
2019-02-27T04:11:05.890Z,0.40
2019-02-27T04:12:04.186Z,0.40
2019-02-27T04:13:04.171Z,0.40
2019-02-27T04:14:05.542Z,0.50
2019-02-27T04:15:04.156Z,0.40
2019-02-27T04:16:04.335Z,0.40
2019-02-27T04:17:06.965Z,0.40
2019-02-27T04:18:04.129Z,0.40
2019-02-27T04:19:05.086Z,0.40
2019-02-27T04:20:04.100Z,0.30
2019-02-27T04:21:04.799Z,0.50
2019-02-27T04:22:04.081Z,0.30
2019-02-27T04:23:04.083Z,0.30
2019-02-27T04:24:04.329Z,0.50
2019-02-27T04:25:04.044Z,0.40
2019-02-27T04:26:05.754Z,0.30
2019-02-27T04:27:04.326Z,0.40
2019-02-27T04:28:04.026Z,0.40
2019-02-27T04:29:07.538Z,0.30
2019-02-27T04:30:04.006Z,0.40
2019-02-27T04:31:03.987Z,0.40
2019-02-27T04:32:03.978Z,0.40
2019-02-27T04:33:03.952Z,0.50
2019-02-27T04:34:03.945Z,0.40
2019-02-27T04:35:06.203Z,0.50
2019-02-27T04:36:03.942Z,0.40
2019-02-27T04:37:04.336Z,0.30
2019-02-27T04:38:03.905Z,0.30
2019-02-27T04:39:03.907Z,0.40
2019-02-27T04:40:03.895Z,0.40
2019-02-27T04:41:03.873Z,0.40
2019-02-27T04:42:04.329Z,0.40
2019-02-27T04:43:03.851Z,0.40
2019-02-27T04:44:06.101Z,0.40
2019-02-27T04:45:03.816Z,0.40
2019-02-27T04:46:03.843Z,0.40
2019-02-27T04:47:03.829Z,0.50
2019-02-27T04:48:03.813Z,0.40
2019-02-27T04:49:04.821Z,0.30
2019-02-27T04:50:03.772Z,0.30
2019-02-27T04:51:03.764Z,0.30
2019-02-27T04:52:03.743Z,0.40
2019-02-27T04:53:03.756Z,0.50
2019-02-27T04:54:06.313Z,0.30
2019-02-27T04:55:03.833Z,0.50
2019-02-27T04:56:03.703Z,0.30
2019-02-27T04:57:03.684Z,0.40
2019-02-27T04:58:03.678Z,0.40
2019-02-27T04:59:03.672Z,0.30
2019-02-27T05:00:03.671Z,0.40
2019-02-27T05:01:03.810Z,0.50
2019-02-27T05:02:03.631Z,0.50
2019-02-27T05:03:03.619Z,0.40
2019-02-27T05:04:03.613Z,0.30
2019-02-27T05:05:06.229Z,0.30
2019-02-27T05:06:03.833Z,0.30
2019-02-27T05:07:03.588Z,0.40
2019-02-27T05:08:03.569Z,0.40
2019-02-27T05:09:03.554Z,0.30
2019-02-27T05:10:06.859Z,0.40
2019-02-27T05:11:03.551Z,0.50
2019-02-27T05:12:03.556Z,0.40
2019-02-27T05:13:03.515Z,0.30
2019-02-27T05:14:03.816Z,0.40
2019-02-27T05:15:04.251Z,0.40
2019-02-27T05:16:03.480Z,0.40
2019-02-27T05:17:03.493Z,0.40
2019-02-27T05:18:03.456Z,0.50
2019-02-27T05:19:04.020Z,0.50
2019-02-27T05:20:03.438Z,0.40
2019-02-27T05:21:03.450Z,0.30
2019-02-27T05:22:03.416Z,0.40
2019-02-27T05:23:03.412Z,0.40
2019-02-27T05:24:05.216Z,0.40
2019-02-27T05:25:03.386Z,0.50
2019-02-27T05:26:03.826Z,0.50
2019-02-27T05:27:03.367Z,0.40
2019-02-27T05:28:03.362Z,0.40
2019-02-27T05:29:03.349Z,0.30
2019-02-27T05:30:03.350Z,0.50
2019-02-27T05:31:03.322Z,0.40
2019-02-27T05:32:03.326Z,0.30
2019-02-27T05:33:03.290Z,0.40
2019-02-27T05:34:03.287Z,0.40
2019-02-27T05:35:03.267Z,0.40
2019-02-27T05:36:03.263Z,0.40
2019-02-27T05:37:05.443Z,0.50
2019-02-27T05:38:03.340Z,0.40
2019-02-27T05:39:03.234Z,0.50
2019-02-27T05:40:03.214Z,0.30
2019-02-27T05:41:03.209Z,0.30
2019-02-27T05:42:06.121Z,0.40
2019-02-27T05:43:03.186Z,0.20
2019-02-27T05:44:03.325Z,0.50
2019-02-27T05:45:03.158Z,0.40
2019-02-27T05:46:03.819Z,0.40
2019-02-27T05:47:03.147Z,0.30
2019-02-27T05:48:03.149Z,0.40
2019-02-27T05:49:03.129Z,0.40
2019-02-27T05:50:03.124Z,0.30
2019-02-27T05:51:04.998Z,0.40
2019-02-27T05:52:03.329Z,0.50
2019-02-27T05:53:03.077Z,0.30
2019-02-27T05:54:03.814Z,0.40
2019-02-27T05:55:05.993Z,0.50
2019-02-27T05:56:03.037Z,0.30
2019-02-27T05:57:03.051Z,0.30
2019-02-27T05:58:03.021Z,0.40
2019-02-27T05:59:03.008Z,0.40
2019-02-27T06:00:03.430Z,0.30
2019-02-27T06:01:04.922Z,0.40
2019-02-27T06:02:03.901Z,0.30
2019-02-27T06:03:02.976Z,0.30
2019-02-27T06:04:03.828Z,0.40
2019-02-27T06:05:07.344Z,0.50
2019-02-27T06:06:06.704Z,0.70
2019-02-27T06:07:04.122Z,0.70
2019-02-27T06:08:03.829Z,0.90
2019-02-27T06:09:03.335Z,1.00
2019-02-27T06:10:03.891Z,1.40
2019-02-27T06:11:03.892Z,1.50
2019-02-27T06:12:06.558Z,1.30
2019-02-27T06:13:03.845Z,1.50
2019-02-27T06:14:03.832Z,1.40
2019-02-27T06:15:03.822Z,1.50
2019-02-27T06:16:06.596Z,1.70
2019-02-27T06:17:03.472Z,1.60
2019-02-27T06:18:02.850Z,1.70
2019-02-27T06:19:03.314Z,1.70
2019-02-27T06:20:02.836Z,1.60
2019-02-27T06:21:03.312Z,1.80
2019-02-27T06:22:03.319Z,1.70
2019-02-27T06:23:04.997Z,1.80
2019-02-27T06:24:03.308Z,1.50
2019-02-27T06:25:03.342Z,1.90
2019-02-27T06:26:03.314Z,1.70
2019-02-27T06:27:06.077Z,1.70
2019-02-27T06:28:02.699Z,1.70
2019-02-27T06:29:03.321Z,1.90
2019-02-27T06:30:03.337Z,1.30
2019-02-27T06:31:03.315Z,1.60
2019-02-27T06:32:03.363Z,1.80
2019-02-27T06:33:02.640Z,1.90
2019-02-27T06:34:03.337Z,2.00
2019-02-27T06:35:03.353Z,2.20
2019-02-27T06:36:05.419Z,2.10
2019-02-27T06:37:03.341Z,2.20
2019-02-27T06:38:03.360Z,2.20
2019-02-27T06:39:03.316Z,2.60
2019-02-27T06:40:04.764Z,2.30
2019-02-27T06:41:03.340Z,2.40
2019-02-27T06:42:05.600Z,2.20
2019-02-27T06:43:03.325Z,2.70
2019-02-27T06:44:02.533Z,2.30
2019-02-27T06:45:02.841Z,2.50
2019-02-27T06:46:03.348Z,2.30
2019-02-27T06:47:23.853Z,2.80
2019-02-27T06:48:02.653Z,2.80
2019-02-27T06:49:08.501Z,2.90
2019-02-27T06:50:03.455Z,2.80
2019-02-27T06:51:04.278Z,3.20
2019-02-27T06:52:03.512Z,3.60
2019-02-27T06:53:03.986Z,3.20
2019-02-27T06:54:02.497Z,3.80
2019-02-27T06:55:07.221Z,3.40
2019-02-27T06:56:11.043Z,3.40
2019-02-27T06:57:08.416Z,3.20
2019-02-27T06:58:25.492Z,3.50
2019-02-27T06:59:10.062Z,2.90
2019-02-27T07:00:05.352Z,4.00
2019-02-27T07:01:09.218Z,3.30
2019-02-27T07:02:13.818Z,3.20
2019-02-27T07:05:50.919Z,3.60
2019-02-27T07:06:43.702Z,3.40
2019-02-27T07:07:45.526Z,3.50
2019-02-27T07:08:43.031Z,3.20
2019-02-27T07:09:45.832Z,3.50
2019-02-27T07:10:48.548Z,3.50
2019-02-27T07:11:49.520Z,3.30
2019-02-27T07:12:47.517Z,3.60
2019-02-27T07:13:47.021Z,3.10
2019-02-27T07:14:44.528Z,3.60
2019-02-27T07:15:44.932Z,3.50
2019-02-27T07:16:45.594Z,3.10
2019-02-27T07:17:50.183Z,3.30
2019-02-27T07:18:43.054Z,3.90
2019-02-27T07:19:49.752Z,3.50
2019-02-27T07:20:44.327Z,3.70
2019-02-27T07:21:42.075Z,3.60
2019-02-27T07:22:47.023Z,3.20
2019-02-27T07:23:46.986Z,3.50
2019-02-27T07:24:46.229Z,4.00
2019-02-27T07:25:47.037Z,3.70
2019-02-27T07:26:50.122Z,4.20
2019-02-27T07:27:45.537Z,3.80
2019-02-27T07:28:44.293Z,4.00
2019-02-27T07:29:52.049Z,3.90
2019-02-27T07:30:45.518Z,3.80
2019-02-27T07:31:52.042Z,4.10
2019-02-27T07:32:53.699Z,4.50
2019-02-27T07:33:49.092Z,3.70
2019-02-27T07:35:04.385Z,4.10
2019-02-27T07:35:48.680Z,4.20
2019-02-27T07:36:48.614Z,4.00
2019-02-27T07:37:48.308Z,4.50
2019-02-27T07:38:54.357Z,4.30
2019-02-27T07:39:45.601Z,4.20
2019-02-27T07:40:51.545Z,3.90
2019-02-27T07:41:43.058Z,4.10
2019-02-27T07:42:44.784Z,4.60
2019-02-27T07:43:47.113Z,4.50
2019-02-27T07:44:46.029Z,4.50
2019-02-27T07:45:46.221Z,4.90
2019-02-27T07:46:46.527Z,4.70
2019-02-27T07:47:45.698Z,4.80
2019-02-27T07:48:43.146Z,4.30
2019-02-27T07:49:44.141Z,3.70
2019-02-27T07:50:49.148Z,4.50
2019-02-27T07:51:41.410Z,4.30
2019-02-27T07:52:47.777Z,4.20
2019-02-27T07:53:43.681Z,4.60
2019-02-27T07:54:44.632Z,4.10
2019-02-27T07:55:47.642Z,4.60
2019-02-27T07:56:49.074Z,4.70
2019-02-27T07:57:52.784Z,4.60
2019-02-27T07:58:45.770Z,4.40
2019-02-27T07:59:42.331Z,4.60
2019-02-27T08:00:49.857Z,4.00
2019-02-27T08:01:46.037Z,4.40
2019-02-27T08:02:45.871Z,4.40
2019-02-27T08:03:45.542Z,4.20
2019-02-27T08:04:45.567Z,4.70
2019-02-27T08:05:46.095Z,4.40
2019-02-27T08:06:46.594Z,4.90
2019-02-27T08:07:48.735Z,5.20
2019-02-27T08:08:46.088Z,4.90
2019-02-27T08:09:48.033Z,5.40
2019-02-27T08:10:47.685Z,4.60
2019-02-27T08:11:54.027Z,5.00
2019-02-27T08:12:42.466Z,4.90
2019-02-27T08:13:45.543Z,4.90
2019-02-27T08:14:44.552Z,5.00
2019-02-27T08:15:47.536Z,5.10
2019-02-27T08:16:44.560Z,4.90
2019-02-27T08:17:43.672Z,5.40
2019-02-27T08:18:46.914Z,5.60
2019-02-27T08:19:48.530Z,5.20
2019-02-27T08:20:48.115Z,5.20
2019-02-27T08:21:43.399Z,5.30
2019-02-27T08:22:46.113Z,5.40
2019-02-27T08:23:46.035Z,4.90
2019-02-27T08:24:47.049Z,4.80
2019-02-27T08:25:49.543Z,4.80
2019-02-27T08:26:53.530Z,5.50
2019-02-27T08:27:54.141Z,5.40
2019-02-27T08:28:47.557Z,5.20
2019-02-27T08:29:44.649Z,5.40
2019-02-27T08:30:46.038Z,5.10
2019-02-27T08:31:43.562Z,5.80
2019-02-27T08:32:50.866Z,5.10
2019-02-27T08:33:44.038Z,5.60
2019-02-27T08:34:48.064Z,5.10
2019-02-27T08:35:45.544Z,6.10
2019-02-27T08:36:47.140Z,5.50
2019-02-27T08:37:46.539Z,5.50
2019-02-27T08:38:48.069Z,5.10
2019-02-27T08:39:45.414Z,5.50
2019-02-27T08:40:45.536Z,5.40
2019-02-27T08:41:43.876Z,5.40
2019-02-27T08:42:44.989Z,5.90
2019-02-27T08:43:43.556Z,6.00
2019-02-27T08:44:46.615Z,5.90
2019-02-27T08:45:46.125Z,5.70
2019-02-27T08:46:45.107Z,5.60
2019-02-27T08:47:46.565Z,5.80
2019-02-27T08:48:49.913Z,5.50
2019-02-27T08:49:59.546Z,5.70
2019-02-27T08:52:00.927Z,5.10
2019-02-27T08:53:05.398Z,6.40
2019-02-27T08:53:59.899Z,6.30
2019-02-27T08:55:05.399Z,5.90
2019-02-27T08:56:06.485Z,5.40
2019-02-27T08:58:22.002Z,5.60
2019-02-27T08:59:16.266Z,5.90
2019-02-27T09:00:24.768Z,6.20
2019-02-27T09:01:19.025Z,5.50
2019-02-27T09:02:24.220Z,5.00
2019-02-27T09:03:20.186Z,5.60
2019-02-27T09:04:18.736Z,5.00
2019-02-27T09:05:47.407Z,5.30
2019-02-27T09:06:18.738Z,5.90
2019-02-27T09:07:20.260Z,4.90
2019-02-27T09:08:46.853Z,5.40
2019-02-27T09:09:38.284Z,5.10
2019-02-27T09:10:23.222Z,5.00
2019-02-27T09:11:40.070Z,5.00
2019-02-27T09:12:20.319Z,4.70
2019-02-27T09:14:27.691Z,4.70
2019-02-27T09:15:26.498Z,5.10
2019-02-27T09:16:29.541Z,5.20
2019-02-27T09:17:34.243Z,4.10
2019-02-27T09:18:44.137Z,4.30
2019-02-27T09:19:27.641Z,4.10
2019-02-27T09:20:27.927Z,4.00
2019-02-27T09:21:31.775Z,4.30
2019-02-27T09:22:29.245Z,4.20
2019-02-27T09:23:29.505Z,4.30
2019-02-27T09:24:28.876Z,4.30
2019-02-27T09:25:25.103Z,4.30
2019-02-27T09:26:25.513Z,3.70
2019-02-27T09:27:26.383Z,4.60
2019-02-27T09:28:25.978Z,3.80
2019-02-27T09:29:25.973Z,3.90
2019-02-27T09:30:29.351Z,3.80
2019-02-27T09:31:24.979Z,3.90
2019-02-27T09:32:25.456Z,3.50
2019-02-27T09:33:25.465Z,3.80
2019-02-27T09:34:26.858Z,4.20
2019-02-27T09:35:25.511Z,4.00
2019-02-27T09:36:25.471Z,3.50
2019-02-27T09:37:25.461Z,4.30
2019-02-27T09:38:25.462Z,4.30
2019-02-27T09:39:30.651Z,3.80
2019-02-27T09:40:25.978Z,4.10
2019-02-27T09:41:25.494Z,3.80
2019-02-27T09:42:25.474Z,4.00
2019-02-27T09:43:27.216Z,4.40
2019-02-27T09:44:25.505Z,3.70
2019-02-27T09:45:24.998Z,3.30
2019-02-27T09:46:24.818Z,3.70
2019-02-27T09:47:27.937Z,3.40
2019-02-27T09:48:26.939Z,4.10
2019-02-27T09:49:24.986Z,3.60
2019-02-27T09:50:25.471Z,3.50
2019-02-27T09:51:24.760Z,3.80
2019-02-27T09:52:24.995Z,3.60
2019-02-27T09:53:25.011Z,4.00
2019-02-27T09:54:25.478Z,3.50
2019-02-27T09:55:25.481Z,3.00
2019-02-27T09:56:26.063Z,3.50
2019-02-27T09:57:27.104Z,3.60
2019-02-27T09:58:24.984Z,3.60
2019-02-27T09:59:25.467Z,3.90
2019-02-27T10:00:26.603Z,3.20
2019-02-27T10:01:24.635Z,3.80
2019-02-27T10:02:25.461Z,3.80
2019-02-27T10:03:25.025Z,3.60
2019-02-27T10:04:25.898Z,3.80
2019-02-27T10:05:25.520Z,3.90
2019-02-27T10:06:25.468Z,3.30
2019-02-27T10:07:24.562Z,3.90
2019-02-27T10:08:25.618Z,3.90
2019-02-27T10:09:24.983Z,3.50
2019-02-27T10:10:25.477Z,3.30
2019-02-27T10:11:25.478Z,3.40
2019-02-27T10:12:27.041Z,3.30
2019-02-27T10:13:27.126Z,3.40
2019-02-27T10:14:26.384Z,3.80
2019-02-27T10:15:26.008Z,3.40
2019-02-27T10:16:25.398Z,3.50
2019-02-27T10:17:25.981Z,3.60
2019-02-27T10:18:29.481Z,3.80
2019-02-27T10:19:26.878Z,3.40
2019-02-27T10:20:24.977Z,3.10
2019-02-27T10:21:24.521Z,3.40
2019-02-27T10:22:25.036Z,3.30
2019-02-27T10:23:24.964Z,3.10
2019-02-27T10:24:24.977Z,3.10
2019-02-27T10:25:24.996Z,3.20
2019-02-27T10:26:24.514Z,3.60
2019-02-27T10:27:25.493Z,3.60
2019-02-27T10:28:24.334Z,3.50
2019-02-27T10:29:24.991Z,3.10
2019-02-27T10:30:24.503Z,3.40
2019-02-27T10:31:25.971Z,3.30
2019-02-27T10:32:25.067Z,3.10
2019-02-27T10:33:25.845Z,3.00
2019-02-27T10:34:25.210Z,3.40
2019-02-27T10:35:26.852Z,3.20
2019-02-27T10:36:24.976Z,3.00
2019-02-27T10:37:25.017Z,3.10
2019-02-27T10:38:26.136Z,3.20
2019-02-27T10:39:24.983Z,3.40
2019-02-27T10:40:25.981Z,3.40
2019-02-27T10:41:24.978Z,3.20
2019-02-27T10:42:24.972Z,3.10
2019-02-27T10:43:24.196Z,3.00
2019-02-27T10:44:24.977Z,3.30
2019-02-27T10:45:26.975Z,3.00
2019-02-27T10:46:24.993Z,3.00
2019-02-27T10:47:25.492Z,3.10
2019-02-27T10:48:24.503Z,3.10
2019-02-27T10:49:24.987Z,3.50
2019-02-27T10:50:28.073Z,2.80
2019-02-27T10:51:30.405Z,2.90
2019-02-27T10:52:26.789Z,3.10
2019-02-27T10:53:27.478Z,3.40
2019-02-27T10:54:25.003Z,3.20
2019-02-27T10:55:26.817Z,3.10
2019-02-27T10:56:24.994Z,2.80
2019-02-27T10:57:32.522Z,3.30
2019-02-27T10:58:25.991Z,3.30
2019-02-27T10:59:24.023Z,2.80
2019-02-27T11:00:25.795Z,2.90
2019-02-27T11:01:25.341Z,2.90
2019-02-27T11:02:24.489Z,2.90
2019-02-27T11:03:27.057Z,2.90
2019-02-27T11:04:23.974Z,3.30
2019-02-27T11:05:24.486Z,3.20
2019-02-27T11:06:33.690Z,2.90
2019-02-27T11:07:25.487Z,3.20
2019-02-27T11:08:45.019Z,3.40
2019-02-27T11:09:24.491Z,3.50
2019-02-27T11:10:26.562Z,2.80
2019-02-27T11:11:24.482Z,3.40
2019-02-27T11:12:26.901Z,3.30
2019-02-27T11:13:24.528Z,3.30
2019-02-27T11:14:24.511Z,3.40
2019-02-27T11:15:24.522Z,3.50
2019-02-27T11:16:24.659Z,3.70
2019-02-27T11:17:24.519Z,3.30
2019-02-27T11:18:24.502Z,3.40
2019-02-27T11:19:24.519Z,3.20
2019-02-27T11:20:24.793Z,4.00
2019-02-27T11:21:24.501Z,3.50
2019-02-27T11:22:24.492Z,3.30
2019-02-27T11:23:25.988Z,3.40
2019-02-27T11:24:24.826Z,3.70
2019-02-27T11:25:23.722Z,3.00
2019-02-27T11:26:24.007Z,3.20
2019-02-27T11:27:24.005Z,3.10
2019-02-27T11:28:24.017Z,3.20
2019-02-27T11:29:24.513Z,3.30
2019-02-27T11:30:24.483Z,3.10
2019-02-27T11:31:24.481Z,3.40
2019-02-27T11:32:24.487Z,2.80
2019-02-27T11:33:25.877Z,3.10
2019-02-27T11:34:24.503Z,2.90
2019-02-27T11:35:25.117Z,3.30
2019-02-27T11:36:24.489Z,3.00
2019-02-27T11:37:24.510Z,3.20
2019-02-27T11:38:25.474Z,3.10
2019-02-27T11:39:25.166Z,3.00
2019-02-27T11:40:24.610Z,3.00
2019-02-27T11:41:25.354Z,3.20
2019-02-27T11:42:24.500Z,2.80
2019-02-27T11:43:24.492Z,2.90
2019-02-27T11:44:24.510Z,3.30
2019-02-27T11:45:24.884Z,3.00
2019-02-27T11:46:23.546Z,3.10
2019-02-27T11:47:24.458Z,3.20
2019-02-27T11:48:23.580Z,3.30
2019-02-27T11:49:24.015Z,2.90
2019-02-27T11:50:23.991Z,2.80
2019-02-27T11:51:24.028Z,3.30
2019-02-27T11:52:27.675Z,3.20
2019-02-27T11:53:24.085Z,2.90
2019-02-27T11:54:23.994Z,2.90
2019-02-27T11:55:24.548Z,2.90
2019-02-27T11:56:26.265Z,2.90
2019-02-27T11:57:27.340Z,2.70
2019-02-27T11:58:25.640Z,2.90
2019-02-27T11:59:31.003Z,3.10
2019-02-27T12:00:26.726Z,2.90
2019-02-27T12:01:28.490Z,2.90
2019-02-27T12:02:29.015Z,2.90
2019-02-27T12:03:26.932Z,3.00
2019-02-27T12:04:23.991Z,2.80
2019-02-27T12:05:23.994Z,3.10
2019-02-27T12:06:26.824Z,2.50
2019-02-27T12:07:24.265Z,2.80
2019-02-27T12:08:25.788Z,2.60
2019-02-27T12:09:23.994Z,2.90
2019-02-27T12:10:24.347Z,2.70
2019-02-27T12:11:23.993Z,2.50
2019-02-27T12:12:24.104Z,2.60
2019-02-27T12:13:25.999Z,2.70
2019-02-27T12:14:23.996Z,2.40
2019-02-27T12:15:23.990Z,2.40
2019-02-27T12:16:25.610Z,2.60
2019-02-27T12:17:25.700Z,2.60
2019-02-27T12:18:25.564Z,2.60
2019-02-27T12:19:25.309Z,2.60
2019-02-27T12:20:44.587Z,2.70
2019-02-27T12:21:25.448Z,3.10
2019-02-27T12:22:24.356Z,3.00
2019-02-27T12:23:24.063Z,2.80
2019-02-27T12:24:24.027Z,3.30
2019-02-27T12:25:26.842Z,3.10
2019-02-27T12:26:45.158Z,2.50
2019-02-27T12:27:47.813Z,2.60
2019-02-27T12:28:25.012Z,3.00
2019-02-27T12:29:26.531Z,3.00
2019-02-27T12:30:24.001Z,2.90
2019-02-27T12:31:23.027Z,2.80
2019-02-27T12:32:23.504Z,2.30
2019-02-27T12:33:22.984Z,2.60
2019-02-27T12:34:23.049Z,2.60
2019-02-27T12:35:23.062Z,3.00
2019-02-27T12:36:23.510Z,2.60
2019-02-27T12:37:28.159Z,2.70
2019-02-27T12:38:22.955Z,2.60
2019-02-27T12:39:23.519Z,3.20
2019-02-27T12:40:24.928Z,2.80
2019-02-27T12:41:23.717Z,2.70
2019-02-27T12:42:23.726Z,3.00
2019-02-27T12:43:23.605Z,2.70
2019-02-27T12:44:23.271Z,2.70
2019-02-27T12:45:25.797Z,2.70
2019-02-27T12:46:25.673Z,2.70
2019-02-27T12:47:23.469Z,2.80
2019-02-27T12:48:23.773Z,2.90
2019-02-27T12:49:24.047Z,3.20
2019-02-27T12:50:30.866Z,3.10
2019-02-27T12:51:27.579Z,2.60
2019-02-27T12:52:24.633Z,3.20
2019-02-27T12:53:23.513Z,2.90
2019-02-27T12:54:22.761Z,3.10
2019-02-27T12:55:23.504Z,3.20
2019-02-27T12:56:23.056Z,3.10
2019-02-27T12:57:23.991Z,2.90
2019-02-27T12:58:24.437Z,2.70
2019-02-27T12:59:23.562Z,2.60
2019-02-27T13:00:23.523Z,2.70
2019-02-27T13:01:33.534Z,3.10
2019-02-27T13:02:34.652Z,3.10
2019-02-27T13:03:23.661Z,2.80
2019-02-27T13:04:33.583Z,3.30
2019-02-27T13:05:26.294Z,2.70
2019-02-27T13:06:23.529Z,3.00
2019-02-27T13:07:23.616Z,2.60
2019-02-27T13:08:23.532Z,2.70
2019-02-27T13:09:24.501Z,3.00
2019-02-27T13:10:23.523Z,3.00
2019-02-27T13:11:24.524Z,2.60
2019-02-27T13:12:23.509Z,2.80
2019-02-27T13:13:25.923Z,2.80
2019-02-27T13:14:23.025Z,2.70
2019-02-27T13:15:22.549Z,2.80
2019-02-27T13:16:23.088Z,2.90
2019-02-27T13:17:23.016Z,2.70
2019-02-27T13:18:23.012Z,2.70
2019-02-27T13:19:23.026Z,2.80
2019-02-27T13:20:22.469Z,2.70
2019-02-27T13:21:23.082Z,2.60
2019-02-27T13:22:22.548Z,2.90
2019-02-27T13:23:23.035Z,3.10
2019-02-27T13:24:22.579Z,3.50